Terminal Aerodrome Forecast
Issued by NWS Charleston, WV

Current Version | Previous Version | Graphics & Text | Print | Product List | Glossary On
Versions: 1 2 3 4 5 6 7 8 9 10 11 12 13 14 15 16 17 18 19 20 21 22 23 24 25
689
FTUS41 KRLX 160541
TAFCRW
TAF
KCRW 160541Z 1606/1706 VRB03KT 5SM -RA BR BKN004 OVC015
     FM161000 00000KT 2SM BR OVC004
     FM161400 00000KT P6SM OVC015
     FM162000 00000KT P6SM BKN045
     FM170400 VRB03KT 5SM -SHRA OVC045=

USA.gov is the U.S. government's official web portal to all federal, state and local government web resources and services.